Time;durP1;ratioP1;P1;durP2;ratioP2;P2;SDS_P1;SDS_P2;PMS_P1;PMS_P2;Temp;Humidity;BMP_temperature;BMP_pressure;BME280_temperature;BME280_humidity;BME280_pressure;Samples;Min_cycle;Max_cycle;Signal;HPM_P1;HPM_P2
2023/09/19 00:00:46;;;;;;;5.53;1.00;;;14.50;99.90;;;;;;4865904;29;20091;-90
2023/09/19 00:03:12;;;;;;;6.40;0.95;;;14.60;99.90;;;;;;4847966;29;20057;-90
2023/09/19 00:05:39;;;;;;;4.85;0.98;;;14.50;99.90;;;;;;4865022;29;20051;-91
2023/09/19 00:08:05;;;;;;;5.47;1.23;;;14.50;99.90;;;;;;4864866;29;20051;-91
2023/09/19 00:10:39;;;;;;;4.70;1.00;;;14.40;99.90;;;;;;4850140;29;20426;-92
2023/09/19 00:13:06;;;;;;;5.72;0.90;;;14.50;99.90;;;;;;4847569;29;20392;-92
2023/09/19 00:15:40;;;;;;;4.78;1.08;;;14.40;99.90;;;;;;4850794;29;20771;-92
2023/09/19 00:18:09;;;;;;;7.07;1.50;;;14.40;99.90;;;;;;4862064;29;20095;-91
2023/09/19 00:20:38;;;;;;;6.32;1.20;;;14.40;99.90;;;;;;4865045;29;20671;-92
2023/09/19 00:23:05;;;;;;;4.85;1.30;;;14.40;99.90;;;;;;4866434;29;20040;-94
2023/09/19 00:25:32;;;;;;;5.68;1.42;;;14.30;99.90;;;;;;4863341;29;20056;-91
2023/09/19 00:27:58;;;;;;;6.40;1.35;;;14.30;99.90;;;;;;4839336;29;20044;-93
2023/09/19 00:30:24;;;;;;;5.10;1.20;;;14.30;99.90;;;;;;4833056;29;20055;-94
2023/09/19 00:32:54;;;;;;;5.40;1.48;;;14.30;99.90;;;;;;4847727;29;20045;-92
2023/09/19 00:35:23;;;;;;;6.57;1.55;;;14.30;99.90;;;;;;4862555;29;20048;-93
2023/09/19 00:37:50;;;;;;;5.95;1.10;;;14.30;99.90;;;;;;4869276;29;20044;-93
2023/09/19 00:40:16;;;;;;;5.15;1.20;;;14.30;99.90;;;;;;4869226;29;20516;-91
2023/09/19 00:42:46;;;;;;;7.13;1.17;;;14.30;99.90;;;;;;4869488;29;20126;-91
2023/09/19 00:45:14;;;;;;;6.35;1.20;;;14.30;99.90;;;;;;4853656;29;20048;-93
2023/09/19 00:47:43;;;;;;;8.07;1.20;;;14.30;99.90;;;;;;4868181;29;20084;-94
2023/09/19 00:50:10;;;;;;;5.10;1.38;;;14.20;99.90;;;;;;4884015;29;20047;-91
2023/09/19 00:52:42;;;;;;;4.20;1.15;;;14.20;99.90;;;;;;4855251;29;20040;-91
2023/09/19 00:55:13;;;;;;;4.95;1.27;;;;;;;;;;4858881;29;20079;-92
2023/09/19 00:57:39;;;;;;;5.28;1.20;;;14.40;99.90;;;;;;4860664;29;20603;-92
2023/09/19 01:00:08;;;;;;;5.10;1.27;;;14.50;99.90;;;;;;4869316;29;20048;-93
2023/09/19 01:02:35;;;;;;;3.78;1.90;;;14.10;99.90;;;;;;4872889;29;20496;-95
2023/09/19 01:05:04;;;;;;;6.70;1.13;;;;;;;;;;4872411;29;20400;-92
2023/09/19 01:07:31;;;;;;;5.53;1.17;;;14.10;99.90;;;;;;4861804;29;20038;-93
2023/09/19 01:10:14;;;;;;;4.25;1.20;;;14.00;99.90;;;;;;4854541;29;20076;-93
2023/09/19 01:13:05;;;;;;;4.97;1.30;;;14.00;99.90;;;;;;4838367;29;20049;-92
2023/09/19 01:15:46;;;;;;;5.78;1.20;;;14.00;99.90;;;;;;4884003;29;20055;-95
2023/09/19 01:18:40;;;;;;;7.65;1.08;;;13.90;99.90;;;;;;4864345;29;20044;-96
2023/09/19 01:21:23;;;;;;;4.93;1.13;;;13.90;99.90;;;;;;4889357;29;20044;-93
2023/09/19 01:24:26;;;;;;;5.78;1.20;;;14.50;99.90;;;;;;4868795;29;20793;-94
2023/09/19 01:27:30;;;;;;;5.25;1.23;;;13.80;99.90;;;;;;4863472;29;20044;-94
2023/09/19 01:30:22;;;;;;;4.63;1.10;;;13.70;99.90;;;;;;4816779;29;20125;-95
2023/09/19 01:32:52;;;;;;;5.18;1.20;;;13.70;99.90;;;;;;4866436;29;20048;-93
2023/09/19 01:35:21;;;;;;;4.63;1.02;;;13.70;99.90;;;;;;4864215;29;20040;-93
2023/09/19 01:37:49;;;;;;;5.03;1.30;;;13.50;99.90;;;;;;4872274;29;20041;-93
2023/09/19 01:40:21;;;;;;;5.07;1.17;;;13.60;99.90;;;;;;4872550;29;20040;-94
2023/09/19 01:43:05;;;;;;;4.88;1.00;;;13.60;99.90;;;;;;4859650;29;20040;-94
2023/09/19 01:46:03;;;;;;;4.05;0.93;;;13.60;99.90;;;;;;4884519;29;20044;-94
2023/09/19 01:49:08;;;;;;;6.85;1.40;;;13.60;99.90;;;;;;4828002;29;20473;-94
2023/09/19 01:51:43;;;;;;;4.22;1.00;;;13.50;99.90;;;;;;4875420;29;20131;-93
2023/09/19 01:54:13;;;;;;;4.22;1.17;;;13.50;99.90;;;;;;4870041;29;20103;-94
2023/09/19 01:57:09;;;;;;;7.53;1.58;;;13.50;99.90;;;;;;4856295;29;20044;-95
2023/09/19 01:59:48;;;;;;;5.55;1.15;;;13.40;99.90;;;;;;4870340;29;20052;-95
2023/09/19 02:02:17;;;;;;;4.43;1.20;;;13.40;99.90;;;;;;4887063;29;20048;-96
2023/09/19 02:04:44;;;;;;;5.95;1.17;;;13.40;99.90;;;;;;4875377;29;20059;-96
2023/09/19 02:07:10;;;;;;;5.28;1.23;;;13.40;99.90;;;;;;4850847;29;20489;-96
2023/09/19 02:09:38;;;;;;;4.60;1.23;;;12.80;99.90;;;;;;4838854;29;20056;-95
2023/09/19 02:12:08;;;;;;;6.40;1.10;;;13.30;99.90;;;;;;4853218;29;20045;-96
2023/09/19 02:14:35;;;;;;;6.18;1.15;;;13.30;99.90;;;;;;4872621;29;20048;-94
2023/09/19 02:17:06;;;;;;;6.68;1.17;;;13.30;99.90;;;;;;4855874;29;20047;-95
2023/09/19 02:19:33;;;;;;;3.33;1.02;;;13.30;99.90;;;;;;4840975;29;20076;-96
2023/09/19 02:22:03;;;;;;;6.50;1.30;;;13.30;99.90;;;;;;4857189;29;20177;-96
2023/09/19 02:24:29;;;;;;;5.30;1.13;;;13.30;99.90;;;;;;4839200;29;20053;-96
2023/09/19 02:26:57;;;;;;;3.78;0.80;;;13.30;99.90;;;;;;4856382;29;20096;-96
2023/09/19 02:29:26;;;;;;;9.15;1.13;;;13.20;99.90;;;;;;4843587;29;20045;-96
2023/09/19 02:31:55;;;;;;;4.35;1.05;;;13.20;99.90;;;;;;4857647;29;20062;-96
2023/09/19 02:34:22;;;;;;;8.57;1.48;;;13.20;99.90;;;;;;4862196;29;20041;-96
2023/09/19 02:36:48;;;;;;;5.40;0.73;;;13.20;99.90;;;;;;4876417;29;20040;-95
2023/09/19 02:39:14;;;;;;;5.40;0.90;;;13.20;99.90;;;;;;4878836;29;20568;-95
2023/09/19 02:41:41;;;;;;;5.20;1.08;;;13.20;99.90;;;;;;4874245;29;20091;-95
2023/09/19 02:44:08;;;;;;;8.52;1.38;;;13.20;99.90;;;;;;4858789;29;20036;-96
2023/09/19 02:46:36;;;;;;;3.58;1.10;;;13.10;99.90;;;;;;4873371;29;20087;-96
2023/09/19 02:49:05;;;;;;;6.53;1.20;;;13.10;99.90;;;;;;4873394;29;20048;-94
2023/09/19 02:51:54;;;;;;;2.95;0.88;;;13.10;99.90;;;;;;4875771;29;20052;-95
2023/09/19 02:54:30;;;;;;;6.55;1.40;;;13.10;99.90;;;;;;4860490;29;20540;-96
2023/09/19 02:57:06;;;;;;;5.95;1.00;;;13.10;99.90;;;;;;4891948;29;20040;-96
2023/09/19 02:59:38;;;;;;;6.67;1.10;;;13.00;99.90;;;;;;4861213;29;20056;-96
2023/09/19 03:02:24;;;;;;;5.35;1.30;;;13.00;99.90;;;;;;4875380;29;20040;-96
2023/09/19 03:04:51;;;;;;;8.27;1.17;;;13.00;99.90;;;;;;4861411;29;20075;-96
2023/09/19 03:07:17;;;;;;;4.10;1.63;;;13.00;99.90;;;;;;4878302;29;20043;-94
2023/09/19 03:09:47;;;;;;;4.22;1.30;;;13.00;99.90;;;;;;4853571;29;20058;-96
2023/09/19 03:12:15;;;;;;;5.32;1.15;;;13.00;99.90;;;;;;4844221;29;20136;-96
2023/09/19 03:14:41;;;;;;;6.68;1.00;;;13.00;99.90;;;;;;4852735;29;20134;-96
2023/09/19 03:17:10;;;;;;;5.78;1.08;;;13.00;99.90;;;;;;4844050;29;20048;-96
2023/09/19 03:19:39;;;;;;;4.47;1.13;;;13.10;99.90;;;;;;4857851;29;20037;-94
2023/09/19 03:22:08;;;;;;;3.13;0.75;;;13.00;99.90;;;;;;4874620;29;20048;-93
2023/09/19 03:24:36;;;;;;;4.15;1.38;;;13.10;99.90;;;;;;4867928;29;20064;-92
2023/09/19 03:27:02;;;;;;;9.20;1.33;;;;;;;;;;4858897;29;20052;-94
2023/09/19 03:29:29;;;;;;;6.38;0.98;;;13.00;99.90;;;;;;4872944;29;20142;-96
2023/09/19 03:31:58;;;;;;;6.32;1.10;;;13.00;99.90;;;;;;4849017;24;20049;-94
2023/09/19 03:34:23;;;;;;;5.15;1.08;;;13.00;99.90;;;;;;4831880;29;20056;-96
2023/09/19 03:37:02;;;;;;;4.45;0.95;;;12.70;99.90;;;;;;4837648;29;20045;-95
2023/09/19 03:39:33;;;;;;;4.93;1.10;;;13.00;99.90;;;;;;4851307;29;20073;-94
2023/09/19 03:41:59;;;;;;;4.93;1.10;;;12.90;99.90;;;;;;4838409;29;20543;-96
2023/09/19 03:44:25;;;;;;;5.05;0.77;;;12.90;99.90;;;;;;4833275;29;20041;-90
2023/09/19 03:46:51;;;;;;;5.78;1.10;;;12.90;99.90;;;;;;4831376;29;20042;-96
2023/09/19 03:49:17;;;;;;;7.03;1.10;;;12.90;99.90;;;;;;4830821;29;20045;-93
2023/09/19 03:51:42;;;;;;;7.25;1.25;;;12.90;99.90;;;;;;4816926;29;20045;-96
2023/09/19 03:54:08;;;;;;;5.75;1.10;;;12.80;99.90;;;;;;4847712;29;20045;-95
2023/09/19 03:56:34;;;;;;;3.53;1.05;;;12.80;99.90;;;;;;4816570;29;20116;-94
2023/09/19 03:59:00;;;;;;;6.47;1.30;;;12.80;99.90;;;;;;4831741;29;20450;-93
2023/09/19 04:01:31;;;;;;;3.33;1.02;;;12.80;99.90;;;;;;4817158;29;20049;-95
2023/09/19 04:04:01;;;;;;;3.45;1.17;;;12.90;99.90;;;;;;4820943;29;20049;-95
2023/09/19 04:06:27;;;;;;;5.60;1.10;;;11.70;99.90;;;;;;4850813;29;20195;-95
2023/09/19 04:08:54;;;;;;;5.25;1.35;;;12.70;99.90;;;;;;4835470;29;20550;-91
2023/09/19 04:11:21;;;;;;;5.05;1.23;;;12.80;99.90;;;;;;4821420;29;20049;-96
2023/09/19 04:13:47;;;;;;;6.90;1.25;;;12.80;99.90;;;;;;4807326;29;20132;-94
2023/09/19 04:16:14;;;;;;;7.43;1.40;;;12.80;99.90;;;;;;4815889;29;20077;-94
2023/09/19 04:18:39;;;;;;;3.88;1.05;;;12.80;99.90;;;;;;4807945;29;20106;-94
2023/09/19 04:21:08;;;;;;;6.47;1.40;;;12.90;99.90;;;;;;4814581;29;20428;-96
2023/09/19 04:23:35;;;;;;;5.82;1.05;;;12.90;99.90;;;;;;4833181;29;20037;-94
2023/09/19 04:26:07;;;;;;;4.03;1.20;;;13.00;99.90;;;;;;4845424;29;20068;-96
2023/09/19 04:28:51;;;;;;;8.82;1.40;;;12.90;99.90;;;;;;4874217;29;20041;-95
2023/09/19 04:31:18;;;;;;;3.25;1.00;;;13.00;99.90;;;;;;4846773;29;20053;-96
2023/09/19 04:33:47;;;;;;;5.72;1.00;;;12.90;99.90;;;;;;4851287;29;20055;-96
2023/09/19 04:36:13;;;;;;;8.50;1.35;;;13.00;99.90;;;;;;4813426;29;20163;-96
2023/09/19 04:38:40;;;;;;;8.30;1.60;;;12.40;99.90;;;;;;4833133;29;20128;-92
2023/09/19 04:41:05;;;;;;;5.83;1.50;;;13.00;99.90;;;;;;4846799;29;20048;-93
2023/09/19 04:43:31;;;;;;;5.10;1.00;;;13.00;99.90;;;;;;4802419;29;20033;-93
2023/09/19 04:46:00;;;;;;;6.40;1.20;;;13.00;99.90;;;;;;4800924;29;20046;-94
2023/09/19 04:48:26;;;;;;;4.20;1.08;;;13.00;99.90;;;;;;4818259;29;20045;-94
2023/09/19 04:50:52;;;;;;;5.07;1.20;;;13.00;99.90;;;;;;4813621;29;20042;-93
2023/09/19 04:53:20;;;;;;;6.03;1.00;;;13.00;99.90;;;;;;4813856;29;20092;-94
2023/09/19 04:55:52;;;;;;;6.18;1.40;;;13.10;99.90;;;;;;4860894;29;20037;-95
2023/09/19 04:58:25;;;;;;;5.20;1.02;;;13.10;99.90;;;;;;4863900;29;20045;-94
2023/09/19 05:00:51;;;;;;;5.18;1.25;;;13.10;99.90;;;;;;4846413;29;20125;-96
2023/09/19 05:03:19;;;;;;;7.68;1.45;;;13.10;99.90;;;;;;4820748;29;20034;-94
2023/09/19 05:05:48;;;;;;;4.13;1.15;;;13.00;99.90;;;;;;4831834;29;20045;-96
2023/09/19 05:08:15;;;;;;;3.88;1.08;;;13.10;99.90;;;;;;4842820;29;20060;-95
2023/09/19 05:10:41;;;;;;;4.13;1.25;;;13.10;99.90;;;;;;4789688;29;20053;-93
2023/09/19 05:13:11;;;;;;;5.38;1.15;;;13.10;99.90;;;;;;4835027;29;20042;-96
2023/09/19 05:15:39;;;;;;;4.63;1.20;;;13.10;99.90;;;;;;4821922;29;20048;-96
2023/09/19 05:18:10;;;;;;;4.82;1.10;;;13.20;99.90;;;;;;4824125;29;20077;-94
2023/09/19 05:20:40;;;;;;;3.55;0.82;;;13.20;99.90;;;;;;4820080;29;20046;-95
2023/09/19 05:23:16;;;;;;;5.72;1.60;;;13.10;99.90;;;;;;4839343;29;20064;-96
2023/09/19 05:25:43;;;;;;;4.45;1.10;;;13.20;99.90;;;;;;4837460;29;20041;-96
2023/09/19 05:28:14;;;;;;;5.50;1.20;;;13.20;99.90;;;;;;4820666;29;20109;-96
2023/09/19 05:30:43;;;;;;;5.00;1.30;;;13.20;99.90;;;;;;4840660;29;20140;-96
2023/09/19 05:33:54;;;;;;;4.25;1.10;;;13.30;99.90;;;;;;4871142;29;20063;-93
2023/09/19 05:36:20;;;;;;;5.75;1.50;;;13.30;99.90;;;;;;4889687;29;20064;-95
2023/09/19 05:38:49;;;;;;;4.60;1.00;;;13.30;99.90;;;;;;4872117;29;20048;-93
2023/09/19 05:41:15;;;;;;;6.95;1.48;;;13.30;99.90;;;;;;4850181;29;20048;-94
2023/09/19 05:43:42;;;;;;;9.38;1.35;;;13.40;99.90;;;;;;4849467;29;20050;-94
2023/09/19 05:46:08;;;;;;;2.35;0.90;;;13.40;99.90;;;;;;4832018;29;20117;-92
2023/09/19 05:48:34;;;;;;;5.15;1.30;;;13.40;99.90;;;;;;4817924;29;20084;-95
2023/09/19 05:51:00;;;;;;;7.78;1.42;;;13.40;99.90;;;;;;4834309;29;20069;-92
2023/09/19 05:53:27;;;;;;;4.40;1.40;;;13.40;99.90;;;;;;4834208;29;20389;-93
2023/09/19 05:55:55;;;;;;;5.07;0.98;;;13.40;99.90;;;;;;4835702;29;20037;-93
2023/09/19 05:58:21;;;;;;;6.35;1.10;;;13.40;99.90;;;;;;4792368;29;20038;-94
2023/09/19 06:00:49;;;;;;;6.40;1.38;;;13.50;99.90;;;;;;4804200;29;20502;-91
2023/09/19 06:03:15;;;;;;;;;;;13.40;99.90;;;;;;4797249;29;20136;-92
2023/09/19 06:05:41;;;;;;;5.65;1.20;;;13.50;99.90;;;;;;4828995;29;19924;-95
2023/09/19 06:08:07;;;;;;;7.88;1.40;;;13.50;99.90;;;;;;4814521;29;20132;-94
2023/09/19 06:10:36;;;;;;;6.10;1.25;;;13.50;99.90;;;;;;4820570;29;20053;-91
2023/09/19 06:13:05;;;;;;;6.70;1.23;;;13.50;99.90;;;;;;4840881;29;20053;-89
2023/09/19 06:16:06;;;;;;;6.13;1.30;;;13.50;99.90;;;;;;4814101;29;20096;-96
2023/09/19 06:18:36;;;;;;;5.85;1.05;;;13.60;99.90;;;;;;4880527;29;20041;-95
2023/09/19 06:21:07;;;;;;;5.50;1.40;;;13.60;99.90;;;;;;4838934;29;20128;-94
2023/09/19 06:23:36;;;;;;;6.30;1.30;;;13.60;99.90;;;;;;4844498;29;20112;-94
2023/09/19 06:26:04;;;;;;;8.30;1.35;;;13.40;99.90;;;;;;4822837;29;20041;-92
2023/09/19 06:28:30;;;;;;;8.55;1.48;;;14.30;99.90;;;;;;4871234;29;20041;-95
2023/09/19 06:30:59;;;;;;;4.53;1.25;;;13.70;99.90;;;;;;4854032;29;20189;-96
2023/09/19 06:33:26;;;;;;;6.72;1.10;;;13.70;99.90;;;;;;4863209;29;20057;-92
2023/09/19 06:35:59;;;;;;;3.85;0.88;;;13.70;99.90;;;;;;4817252;29;20053;-92
2023/09/19 06:38:24;;;;;;;4.80;1.10;;;13.80;99.90;;;;;;4835621;29;20056;-93
2023/09/19 06:40:50;;;;;;;8.02;1.50;;;13.90;99.90;;;;;;4834335;29;20045;-93
2023/09/19 06:43:16;;;;;;;5.30;1.20;;;13.90;99.90;;;;;;4819510;29;20045;-92
2023/09/19 06:45:43;;;;;;;5.53;1.17;;;13.90;99.90;;;;;;4859413;29;20049;-96
2023/09/19 06:48:10;;;;;;;10.18;1.38;;;14.00;99.90;;;;;;4833814;29;20044;-95
2023/09/19 06:50:36;;;;;;;4.35;1.15;;;13.90;99.90;;;;;;4851186;29;20045;-95
2023/09/19 06:53:02;;;;;;;3.88;1.00;;;14.10;99.90;;;;;;4834357;29;20132;-95
2023/09/19 06:55:31;;;;;;;5.25;0.93;;;14.10;99.90;;;;;;4829161;29;20041;-95
2023/09/19 06:57:57;;;;;;;6.72;1.15;;;13.50;99.90;;;;;;4828630;29;20080;-93
2023/09/19 07:00:23;;;;;;;7.88;0.90;;;14.20;99.90;;;;;;4845943;29;20084;-94
2023/09/19 07:03:07;;;;;;;3.95;1.23;;;14.30;99.90;;;;;;4826818;29;20045;-95
2023/09/19 07:05:38;;;;;;;6.13;1.20;;;14.30;99.90;;;;;;4832862;29;20053;-94
2023/09/19 07:08:08;;;;;;;5.40;1.45;;;14.40;99.90;;;;;;4804707;29;20061;-92
2023/09/19 07:10:34;;;;;;;6.40;1.83;;;14.50;99.90;;;;;;4834556;29;20128;-93
2023/09/19 07:13:04;;;;;;;3.38;1.30;;;14.50;99.90;;;;;;4843584;29;20056;-92
2023/09/19 07:15:36;;;;;;;6.60;1.60;;;14.70;99.90;;;;;;4815743;29;20386;-90
2023/09/19 07:18:02;;;;;;;4.75;1.77;;;14.80;99.90;;;;;;4841291;29;20064;-91
2023/09/19 07:20:31;;;;;;;6.72;1.30;;;14.90;99.90;;;;;;4831166;29;20042;-95
2023/09/19 07:23:00;;;;;;;7.65;1.10;;;15.00;99.90;;;;;;4848840;29;20089;-92
2023/09/19 07:25:27;;;;;;;5.82;1.20;;;15.00;99.90;;;;;;4832174;29;20045;-94
2023/09/19 07:27:55;;;;;;;5.20;0.80;;;15.10;99.90;;;;;;4815070;29;20486;-94
2023/09/19 07:30:20;;;;;;;4.13;1.00;;;15.20;99.90;;;;;;4811678;29;20038;-93
2023/09/19 07:32:47;;;;;;;5.85;1.10;;;15.30;99.90;;;;;;4808614;29;20072;-90
2023/09/19 07:35:14;;;;;;;3.35;0.82;;;15.30;99.90;;;;;;4840110;29;20098;-91
2023/09/19 07:37:40;;;;;;;8.27;1.55;;;14.90;99.90;;;;;;4860297;29;20409;-93
2023/09/19 07:40:07;;;;;;;6.10;1.35;;;15.30;99.90;;;;;;4799513;29;20137;-93
2023/09/19 07:42:36;;;;;;;6.65;1.65;;;15.40;99.90;;;;;;4829028;29;20123;-92
2023/09/19 07:45:03;;;;;;;4.68;1.30;;;15.40;99.90;;;;;;4814473;29;20114;-90
2023/09/19 07:47:30;;;;;;;6.80;1.33;;;15.60;99.90;;;;;;4868238;29;20051;-93
2023/09/19 07:49:56;;;;;;;10.30;1.42;;;15.70;99.90;;;;;;4856167;29;20045;-89
2023/09/19 07:52:22;;;;;;;5.75;1.73;;;16.00;99.90;;;;;;4795015;29;20045;-91
2023/09/19 07:54:49;;;;;;;5.20;1.17;;;16.20;99.90;;;;;;4839511;29;20038;-90
2023/09/19 07:57:15;;;;;;;5.95;1.50;;;16.40;99.90;;;;;;4843937;29;20668;-91
2023/09/19 07:59:42;;;;;;;6.43;1.80;;;16.60;99.90;;;;;;4843415;29;20455;-92
2023/09/19 08:02:09;;;;;;;6.15;1.67;;;16.60;99.90;;;;;;4825448;29;20125;-91
2023/09/19 08:04:35;;;;;;;5.82;1.40;;;16.70;99.90;;;;;;4809486;29;20056;-92
2023/09/19 08:07:03;;;;;;;4.68;1.55;;;16.80;99.90;;;;;;4848636;29;20041;-92
2023/09/19 08:09:33;;;;;;;4.28;1.20;;;16.80;99.90;;;;;;4828822;29;20051;-92
2023/09/19 08:12:02;;;;;;;5.72;1.17;;;17.00;99.90;;;;;;4813684;29;20136;-92
2023/09/19 08:14:29;;;;;;;6.90;1.27;;;17.30;99.90;;;;;;4835527;29;20417;-93
2023/09/19 08:16:58;;;;;;;4.67;1.20;;;17.80;99.90;;;;;;4824639;29;20570;-92
2023/09/19 08:19:28;;;;;;;4.95;1.25;;;18.40;99.90;;;;;;4847743;29;20597;-92
2023/09/19 08:21:58;;;;;;;6.25;1.40;;;19.20;99.90;;;;;;4821098;29;20064;-92
2023/09/19 08:24:28;;;;;;;5.97;1.05;;;19.20;99.90;;;;;;4843336;29;20049;-91
2023/09/19 08:26:58;;;;;;;5.30;1.30;;;19.40;99.90;;;;;;4829478;29;20045;-93
2023/09/19 08:29:29;;;;;;;5.75;1.15;;;19.90;99.90;;;;;;4816062;29;20137;-93
2023/09/19 08:31:56;;;;;;;5.28;1.27;;;20.20;99.90;;;;;;4829958;29;20081;-93
2023/09/19 08:34:25;;;;;;;5.30;0.95;;;20.10;99.90;;;;;;4828181;29;20053;-95
2023/09/19 08:36:57;;;;;;;5.93;1.30;;;19.90;99.90;;;;;;4819581;29;20045;-91
2023/09/19 08:39:24;;;;;;;3.90;1.10;;;19.40;99.90;;;;;;4857510;29;20421;-92
2023/09/19 08:41:56;;;;;;;5.63;1.27;;;19.10;99.90;;;;;;4845100;29;20044;-92
2023/09/19 08:44:24;;;;;;;5.95;1.20;;;18.90;99.90;;;;;;4842264;29;20085;-91
2023/09/19 08:46:55;;;;;;;5.35;1.40;;;18.90;99.90;;;;;;4847204;29;20045;-92
2023/09/19 08:49:33;;;;;;;5.03;1.23;;;18.80;99.90;;;;;;4847327;29;20053;-91
2023/09/19 08:52:10;;;;;;;7.72;1.65;;;18.80;99.90;;;;;;4823409;29;20041;-94
2023/09/19 08:54:40;;;;;;;4.97;1.10;;;18.80;99.90;;;;;;4847321;29;21451;-91
2023/09/19 08:57:10;;;;;;;6.47;1.60;;;18.70;99.90;;;;;;4847320;29;20423;-95
2023/09/19 08:59:41;;;;;;;4.45;1.20;;;18.70;99.90;;;;;;4817526;29;20041;-93
2023/09/19 09:02:15;;;;;;;5.22;1.33;;;18.60;99.90;;;;;;4853303;29;20045;-92
2023/09/19 09:04:45;;;;;;;5.13;1.40;;;18.40;99.90;;;;;;4863498;29;20045;-92
2023/09/19 09:07:19;;;;;;;6.28;1.70;;;18.30;99.90;;;;;;4811184;29;20550;-92
2023/09/19 09:09:45;;;;;;;5.95;1.42;;;18.10;99.90;;;;;;4837073;29;20045;-92
2023/09/19 09:12:13;;;;;;;6.47;1.55;;;18.00;99.90;;;;;;4798467;29;20049;-93
2023/09/19 09:14:50;;;;;;;5.47;1.50;;;17.90;99.90;;;;;;4831225;29;20506;-92
2023/09/19 09:17:20;;;;;;;4.97;1.50;;;18.00;99.90;;;;;;4815861;29;20589;-92
2023/09/19 09:19:47;;;;;;;3.08;1.35;;;17.90;99.90;;;;;;4816968;29;20046;-94
2023/09/19 09:22:13;;;;;;;;;;;17.80;99.90;;;;;;4832426;29;20048;-94
2023/09/19 09:24:54;;;;;;;6.70;1.40;;;17.80;99.90;;;;;;4830199;29;19928;-90
2023/09/19 09:27:20;;;;;;;4.57;1.25;;;17.80;99.90;;;;;;4853396;29;20055;-92
2023/09/19 09:29:50;;;;;;;6.07;1.97;;;17.80;99.90;;;;;;4838681;29;20083;-94
2023/09/19 09:32:28;;;;;;;6.28;1.63;;;17.90;99.90;;;;;;4827068;29;20089;-92
2023/09/19 09:34:57;;;;;;;5.13;1.73;;;17.90;99.90;;;;;;4845296;29;20051;-95
2023/09/19 09:37:26;;;;;;;5.35;1.67;;;18.00;99.90;;;;;;4850412;29;20073;-92
2023/09/19 09:39:57;;;;;;;8.30;1.80;;;18.10;99.90;;;;;;4833171;29;20061;-91
2023/09/19 09:42:38;;;;;;;7.70;1.70;;;18.10;99.90;;;;;;4847079;29;20049;-92
2023/09/19 09:45:17;;;;;;;8.25;2.25;;;18.10;99.90;;;;;;4816750;29;20087;-92
2023/09/19 09:47:57;;;;;;;6.20;1.88;;;18.00;99.90;;;;;;4857744;29;20568;-91
2023/09/19 09:50:51;;;;;;;6.45;1.77;;;17.90;99.90;;;;;;4831523;29;20049;-91
2023/09/19 09:53:33;;;;;;;7.97;2.10;;;17.80;99.90;;;;;;4829687;29;20056;-90
2023/09/19 09:56:09;;;;;;;5.95;1.80;;;17.70;99.90;;;;;;4823070;29;20082;-91
2023/09/19 09:58:36;;;;;;;5.45;1.73;;;17.70;99.90;;;;;;4821078;29;20049;-91
2023/09/19 10:01:15;;;;;;;8.10;1.70;;;17.80;99.90;;;;;;4834253;29;20056;-93
2023/09/19 10:03:47;;;;;;;4.70;1.60;;;17.90;99.90;;;;;;4830142;29;20771;-93
2023/09/19 10:09:11;;;;;;;6.32;1.73;;;18.20;99.90;;;;;;4830386;29;20049;-94
2023/09/19 10:11:45;;;;;;;11.25;1.65;;;18.40;99.90;;;;;;4830476;29;20045;-92
2023/09/19 10:14:12;;;;;;;6.32;1.65;;;18.40;99.90;;;;;;4846495;29;20041;-94
2023/09/19 10:16:46;;;;;;;6.95;2.10;;;18.50;99.90;;;;;;4831274;29;20041;-93
2023/09/19 10:19:22;;;;;;;6.43;1.75;;;18.50;99.90;;;;;;4846981;29;20041;-91
2023/09/19 10:21:49;;;;;;;6.25;1.80;;;18.70;99.90;;;;;;4846188;29;20049;-93
2023/09/19 10:24:17;;;;;;;7.13;1.92;;;18.80;99.90;;;;;;4829731;29;20045;-91
2023/09/19 10:26:45;;;;;;;5.05;1.52;;;18.80;99.90;;;;;;4851626;29;20057;-91
2023/09/19 10:29:14;;;;;;;6.97;1.60;;;18.80;99.90;;;;;;4844526;29;20053;-93
2023/09/19 10:31:44;;;;;;;6.63;1.88;;;19.00;99.90;;;;;;4858775;29;20049;-93
2023/09/19 10:34:14;;;;;;;5.97;1.67;;;19.10;99.90;;;;;;4813202;29;20162;-90
2023/09/19 10:36:45;;;;;;;7.80;1.85;;;19.10;99.90;;;;;;4856291;29;20114;-92
2023/09/19 10:39:13;;;;;;;6.72;1.77;;;19.00;99.90;;;;;;4846006;29;20041;-93
2023/09/19 10:41:39;;;;;;;8.25;1.95;;;18.90;99.90;;;;;;4844946;29;20041;-91
2023/09/19 10:44:06;;;;;;;8.25;1.70;;;18.80;99.90;;;;;;4830387;29;20045;-94
2023/09/19 10:46:33;;;;;;;4.87;1.70;;;18.90;99.90;;;;;;4830068;29;20085;-93
2023/09/19 10:49:03;;;;;;;8.38;1.85;;;18.90;99.90;;;;;;4847165;29;20128;-92
2023/09/19 10:51:38;;;;;;;4.88;1.40;;;19.00;99.90;;;;;;4832060;29;20042;-91
2023/09/19 10:54:13;;;;;;;7.10;1.52;;;19.10;99.90;;;;;;4830007;29;20121;-92
2023/09/19 10:56:46;;;;;;;7.18;1.55;;;19.00;99.90;;;;;;4828025;29;20405;-92
2023/09/19 10:59:16;;;;;;;5.47;1.48;;;18.90;99.90;;;;;;4856920;29;20046;-96
2023/09/19 11:01:47;;;;;;;8.80;2.03;;;18.80;99.90;;;;;;4846462;29;20459;-91
2023/09/19 11:04:31;;;;;;;8.07;2.08;;;18.80;99.90;;;;;;4801830;29;20045;-95
2023/09/19 11:07:15;;;;;;;6.18;1.58;;;18.50;99.90;;;;;;4844377;29;20059;-94
2023/09/19 11:09:53;;;;;;;8.77;1.90;;;18.50;99.90;;;;;;4830464;29;20545;-92
2023/09/19 11:12:40;;;;;;;7.18;1.73;;;18.50;99.90;;;;;;4860092;29;20076;-93
2023/09/19 11:15:08;;;;;;;7.32;1.67;;;18.50;99.90;;;;;;4826913;29;20045;-90
2023/09/19 11:17:42;;;;;;;5.78;1.65;;;18.50;99.90;;;;;;4824126;29;20053;-94
2023/09/19 11:22:48;;;;;;;4.90;1.60;;;18.40;99.90;;;;;;4859969;29;20056;-92
2023/09/19 11:25:29;;;;;;;4.32;1.52;;;18.40;99.90;;;;;;4829072;29;20052;-90
2023/09/19 11:28:21;;;;;;;7.95;1.92;;;18.40;99.90;;;;;;4849515;29;20048;-92
2023/09/19 11:30:55;;;;;;;5.80;1.80;;;18.40;99.90;;;;;;4843107;29;20037;-94
2023/09/19 11:33:25;;;;;;;6.65;1.60;;;18.50;99.90;;;;;;4843785;29;20050;-92
2023/09/19 11:36:09;;;;;;;6.13;1.55;;;18.50;99.90;;;;;;4852912;29;20053;-93
2023/09/19 11:38:55;;;;;;;6.97;1.55;;;18.40;99.90;;;;;;4830832;29;20041;-94
2023/09/19 11:41:21;;;;;;;7.35;1.67;;;18.20;99.90;;;;;;4829957;29;20085;-92
2023/09/19 11:44:17;;;;;;;5.28;1.80;;;18.20;99.90;;;;;;4846021;29;20529;-93
2023/09/19 11:46:54;;;;;;;5.40;1.75;;;18.20;99.90;;;;;;4839880;29;20570;-92
2023/09/19 11:49:30;;;;;;;7.32;1.58;;;18.20;99.90;;;;;;4829735;29;20045;-92
2023/09/19 11:51:56;;;;;;;7.95;1.42;;;18.30;99.90;;;;;;4844756;29;20490;-94
2023/09/19 11:54:22;;;;;;;5.33;1.70;;;18.20;99.90;;;;;;4819608;29;20127;-93
2023/09/19 11:56:50;;;;;;;7.97;1.70;;;18.20;99.90;;;;;;4810700;29;20098;-94
2023/09/19 11:59:24;;;;;;;8.77;1.73;;;18.20;99.90;;;;;;4842944;29;20103;-94
2023/09/19 12:02:00;;;;;;;7.57;1.55;;;18.30;99.90;;;;;;4817672;29;20075;-94
2023/09/19 12:04:48;;;;;;;5.93;1.45;;;18.30;99.90;;;;;;4846737;29;20071;-91
2023/09/19 12:07:15;;;;;;;8.13;1.67;;;18.20;99.90;;;;;;4829573;29;20181;-91
2023/09/19 12:09:47;;;;;;;5.75;1.52;;;18.20;99.90;;;;;;4831455;29;20064;-93
2023/09/19 12:12:26;;;;;;;8.73;1.80;;;18.20;99.90;;;;;;4837131;29;20045;-93
2023/09/19 12:14:54;;;;;;;7.82;1.95;;;18.10;99.90;;;;;;4831993;29;20041;-90
2023/09/19 12:17:23;;;;;;;;;;;18.00;99.90;;;;;;4849423;29;20124;-93
2023/09/19 12:19:53;;;;;;;6.38;1.67;;;17.90;99.90;;;;;;4830972;29;19923;-92
2023/09/19 12:22:20;;;;;;;9.10;1.38;;;17.90;99.90;;;;;;4844789;29;20053;-91
2023/09/19 12:24:47;;;;;;;5.80;1.88;;;17.90;99.90;;;;;;4829346;29;20398;-94
2023/09/19 12:27:13;;;;;;;;;;;17.90;99.90;;;;;;4843781;29;20054;-93
2023/09/19 12:29:51;;;;;;;7.35;1.90;;;17.80;99.90;;;;;;4811703;29;20002;-95
2023/09/19 12:32:19;;;;;;;7.40;1.60;;;17.80;99.90;;;;;;4831678;29;20054;-92
2023/09/19 12:34:52;;;;;;;5.70;1.42;;;17.80;99.90;;;;;;4812549;29;20559;-92
2023/09/19 12:37:29;;;;;;;7.10;1.25;;;17.90;99.90;;;;;;4857467;29;20052;-93
2023/09/19 12:40:28;;;;;;;7.28;1.42;;;17.90;99.90;;;;;;4828337;29;20097;-94
2023/09/19 12:43:15;;;;;;;7.72;1.20;;;17.80;99.90;;;;;;4833527;29;20085;-92
2023/09/19 12:45:42;;;;;;;7.43;1.25;;;17.70;99.90;;;;;;4826950;29;20685;-91
2023/09/19 12:48:21;;;;;;;8.30;1.45;;;17.70;99.90;;;;;;4840463;29;20455;-94
2023/09/19 12:51:16;;;;;;;6.70;1.83;;;17.70;99.90;;;;;;4840604;29;20085;-92
2023/09/19 12:53:45;;;;;;;7.05;1.10;;;17.70;99.90;;;;;;4826455;29;20121;-94
2023/09/19 12:56:13;;;;;;;6.28;1.42;;;18.20;99.90;;;;;;4827142;29;20087;-93
2023/09/19 12:58:56;;;;;;;5.25;1.15;;;17.70;99.90;;;;;;4798495;29;20049;-91
2023/09/19 13:01:29;;;;;;;5.07;1.58;;;17.70;99.90;;;;;;4827452;29;20057;-94
2023/09/19 13:04:18;;;;;;;4.70;1.23;;;17.70;99.90;;;;;;4806308;29;20119;-94
2023/09/19 13:06:48;;;;;;;8.25;1.20;;;17.70;99.90;;;;;;4810587;29;20053;-91
2023/09/19 13:09:21;;;;;;;5.90;1.33;;;17.70;99.90;;;;;;4830298;29;20037;-92
2023/09/19 13:11:49;;;;;;;5.75;1.33;;;17.70;99.90;;;;;;4846758;29;20050;-95
2023/09/19 13:14:40;;;;;;;6.43;1.48;;;17.70;99.90;;;;;;4843942;29;20050;-91